YBBNYKRY

Guest
Details From YBBN - Brisbane Intl
To YKRY - Kingaroy
Flight Number -
Tags generated
Created
Modified
Stats Distance 84 nm / 156 km
Max Altitude 8,100 ft / 2,469 m
Waypoints 3
Social Downloads 1
Likes 0
Share VATSIM

Download

Looking for another format? Having issues loading an existing format? Contact us
Advertisement - Login to hide

Notes

Basic altitude profile: - Ascent Rate: 1200ft/min - Ascent Speed: 250kts - Cruise Altitude: 60ft - Cruise Speed: 420kts - Descent Rate: 1200ft/min - Descent Speed: 250kts Options: - Use NATs: yes - Use PACOTS: yes - Use low airways: yes - Use high airways: yes

Route

YBBN WACKO YKRY

ID Type Via Altitude Latitude Longitude Leg Dist Tot Dist Heading (true) Name
O YBBN APT - 0 ft / 0 m -27.37571˚ 153.12771˚ - 0 nm - Brisbane Intl
WACKO FIX - 8,100 ft / 2,469 m -27.18806˚ 152.75306˚ 22 nm 22 nm 299° / 299° -
O YKRY APT - 0 ft / 0 m -26.58047˚ 151.83989˚ 61 nm 83 nm 307° / 307° Kingaroy

Altitude Profile

Advertisement - Login to hide

YBBN

Details ICAO YBBN (BNE)
Name Brisbane Intl
Region Australia
Timezone Australia/Brisbane (UTC+10.0)
Stats Elevation 12 ft / 4 m (AMSL)
Location -27.375714° 153.127710°
Runways 2
Magnetic Variation 10.985° E

METAR

YBBN 111100Z 14009KT 9999 FEW025 22/16 Q1017 FM1300 20006KT 9999 FEW020

Decode

TAF

TAF YBBN 110528Z 1106/1212 11014KT 9999 SCT030 FM110800 15010KT 9999 FEW025 FM111300 20006KT 9999 FEW020 FM111600 20006KT 9999 FEW020 BKN040 FM112200 14010KT 9999 SCT035 FM120100 11014KT 9999 FEW035 FM120800 15010KT 9999 FEW020

Decode

Departure Runways

ID Width Length Bearing (true) Bearing (mag) Surface Threshold Offset Overrun Length
01 148 ft / 45 m 11,805 ft / 3,598 m 26.93° 15.95° Asphalt 197 ft / 60 m 0 ft / 0 m
14 98 ft / 30 m 5,787 ft / 1,764 m 145.66° 134.68° Asphalt 197 ft / 60 m 0 ft / 0 m
19 148 ft / 45 m 11,805 ft / 3,598 m 206.92° 195.94° Asphalt 0 ft / 0 m 0 ft / 0 m
32 98 ft / 30 m 5,787 ft / 1,764 m 325.66° 314.68° Asphalt 197 ft / 60 m 0 ft / 0 m

YKRY

Details ICAO YKRY
Name Kingaroy
Region Australia
Timezone Australia/Brisbane (UTC+10.0)
Stats Elevation 1,492 ft / 455 m (AMSL)
Location -26.580469° 151.839888°
Runways 3
Magnetic Variation 10.395° E

METAR

YKRY 111100Z AUTO 09007KT 9999 // NCD 20/16 Q1018

Decode

TAF

Not found

Destination Runways

ID Width Length Bearing (true) Bearing (mag) Surface Threshold Offset Overrun Length
05 203 ft / 62 m 4,718 ft / 1,438 m 65.23° 54.83° Grass 0 ft / 0 m 0 ft / 0 m
16 98 ft / 30 m 5,274 ft / 1,608 m 169.15° 158.75° Asphalt 0 ft / 0 m 0 ft / 0 m
16R 102 ft / 31 m 3,553 ft / 1,083 m 168.38° 157.98° Grass 0 ft / 0 m 0 ft / 0 m
23 203 ft / 62 m 4,718 ft / 1,438 m 245.22° 234.82° Grass 0 ft / 0 m 0 ft / 0 m
34 98 ft / 30 m 5,274 ft / 1,608 m 349.15° 338.75° Asphalt 0 ft / 0 m 0 ft / 0 m
34L 102 ft / 31 m 3,553 ft / 1,083 m 348.38° 337.98° Grass 0 ft / 0 m 0 ft / 0 m